Port Chester, New York
Current Conditions -  °F | °C
As of 10:56 AM on Wednesday 22 Oct 2014 (Local Time) from KHPN Reporting Station
Broken Clouds Broken Clouds  
Wind Chill: 13°   Ceiling: 1800
Heat Index: 13°   Visibility: 10mi
Dew Point: 10°   Wind: 15mph
Humidity: 83%   Direction: 10°N
Pressure: 29.92"   Gusts: 20mph
Location:  41°N, 73.67°W
Report Text: KHPN 221456Z 01013G17KT 10SM BKN018 BKN085 13/10 A2992 RMK AO2 RAE41 SLP132 P0001 60003 T01280100 58002
Loading
Personal Weather Stations






























Interactive Weather Map
Tropical Storm Tracking
New forecast layout! Learn more

10-Day Weather Forecast

Advertisements
Track Severe Weather on mobile